createdAt,value
2019-02-21T00:00:59.827Z,8.30
2019-02-21T00:03:26.879Z,8.30
2019-02-21T00:05:52.164Z,8.30
2019-02-21T00:08:17.354Z,8.30
2019-02-21T00:10:42.499Z,8.30
2019-02-21T00:13:07.765Z,8.20
2019-02-21T00:15:32.958Z,8.20
2019-02-21T00:17:58.096Z,8.30
2019-02-21T00:20:23.583Z,8.20
2019-02-21T00:22:48.750Z,8.20
2019-02-21T00:25:13.928Z,8.20
2019-02-21T00:27:39.119Z,8.20
2019-02-21T00:30:05.743Z,8.20
2019-02-21T00:32:30.985Z,8.10
2019-02-21T00:34:56.173Z,8.20
2019-02-21T00:37:22.337Z,8.20
2019-02-21T00:39:47.487Z,8.10
2019-02-21T00:42:12.691Z,8.10
2019-02-21T00:44:37.832Z,8.10
2019-02-21T00:47:03.010Z,8.10
2019-02-21T00:49:28.320Z,8.10
2019-02-21T00:51:53.495Z,8.10
2019-02-21T00:54:18.643Z,8.10
2019-02-21T00:56:43.991Z,8.10
2019-02-21T00:59:09.143Z,8.00
2019-02-21T01:01:34.298Z,8.10
2019-02-21T01:03:59.568Z,8.10
2019-02-21T01:06:24.715Z,8.10
2019-02-21T01:08:49.960Z,8.10
2019-02-21T01:11:22.003Z,8.10
2019-02-21T01:13:47.148Z,8.10
2019-02-21T01:16:12.626Z,8.20
2019-02-21T01:18:37.895Z,8.10
2019-02-21T01:21:03.152Z,8.00
2019-02-21T01:23:28.299Z,8.10
2019-02-21T01:25:53.755Z,8.10
2019-02-21T01:28:18.887Z,8.20
2019-02-21T01:30:44.055Z,8.20
2019-02-21T01:33:09.240Z,8.30
2019-02-21T01:35:34.391Z,8.20
2019-02-21T01:37:59.577Z,8.30
2019-02-21T01:40:24.739Z,8.20
2019-02-21T01:42:49.887Z,8.20
2019-02-21T01:45:15.045Z,8.30
2019-02-21T01:47:40.223Z,8.20
2019-02-21T01:50:06.627Z,8.20
2019-02-21T01:52:31.795Z,8.10
2019-02-21T01:54:57.072Z,8.20
2019-02-21T01:57:22.218Z,8.10
2019-02-21T01:59:47.372Z,8.20
2019-02-21T02:02:12.547Z,8.20
2019-02-21T02:04:38.705Z,8.20
2019-02-21T02:07:03.980Z,8.20
2019-02-21T02:09:29.255Z,8.20
2019-02-21T02:11:54.418Z,8.20
2019-02-21T02:14:19.655Z,8.30
2019-02-21T02:16:44.839Z,8.30
2019-02-21T02:19:10.012Z,8.20
2019-02-21T02:21:35.178Z,8.20
2019-02-21T02:24:00.326Z,8.20
2019-02-21T02:26:25.505Z,8.30
2019-02-21T02:28:50.642Z,8.20
2019-02-21T02:31:22.600Z,8.30
2019-02-21T02:33:42.856Z,8.30
2019-02-21T02:36:08.002Z,8.30
2019-02-21T02:38:33.167Z,8.20
2019-02-21T02:40:58.341Z,8.20
2019-02-21T02:43:23.539Z,8.20
2019-02-21T02:45:48.715Z,8.30
2019-02-21T02:48:13.853Z,8.30
2019-02-21T02:50:39.148Z,8.20
2019-02-21T02:53:04.326Z,8.30
2019-02-21T02:55:29.468Z,8.20
2019-02-21T02:57:54.623Z,8.30
2019-02-21T03:00:20.976Z,8.20
2019-02-21T03:02:46.155Z,8.20
2019-02-21T03:05:11.294Z,8.20
2019-02-21T03:07:36.442Z,8.30
2019-02-21T03:10:01.602Z,8.30
2019-02-21T03:12:28.052Z,8.20
2019-02-21T03:14:53.224Z,8.20
2019-02-21T03:17:18.392Z,8.20
2019-02-21T03:19:43.552Z,8.10
2019-02-21T03:22:08.686Z,8.10
2019-02-21T03:24:33.886Z,8.10
2019-02-21T03:26:59.022Z,8.10
2019-02-21T03:29:24.211Z,8.20
2019-02-21T03:31:55.615Z,8.20
2019-02-21T03:34:20.075Z,8.10
2019-02-21T03:36:45.405Z,8.10
2019-02-21T03:39:10.791Z,8.10
2019-02-21T03:41:36.058Z,8.10
2019-02-21T03:44:01.195Z,8.00
2019-02-21T03:46:27.164Z,8.10
2019-02-21T03:48:52.431Z,8.10
2019-02-21T03:51:17.883Z,8.10
2019-02-21T03:53:43.160Z,8.10
2019-02-21T03:56:08.495Z,8.00
2019-02-21T03:58:34.279Z,7.90
2019-02-21T04:00:59.556Z,7.90
2019-02-21T04:03:24.956Z,7.90
2019-02-21T04:05:50.216Z,7.90
2019-02-21T04:08:15.390Z,7.90
2019-02-21T04:10:40.842Z,7.90
2019-02-21T04:13:06.106Z,7.90
2019-02-21T04:15:31.715Z,7.80
2019-02-21T04:17:57.111Z,7.80
2019-02-21T04:22:48.237Z,7.80
2019-02-21T04:25:13.515Z,7.80
2019-02-21T04:27:38.883Z,7.80
2019-02-21T04:30:07.622Z,7.70
2019-02-21T04:32:32.793Z,7.70
2019-02-21T04:34:58.036Z,7.80
2019-02-21T04:37:23.352Z,7.70
2019-02-21T04:39:48.560Z,7.70
2019-02-21T04:42:14.098Z,7.70
2019-02-21T04:44:39.566Z,7.70
2019-02-21T04:51:56.458Z,7.80
2019-02-21T04:54:21.721Z,7.80
2019-02-21T04:56:46.896Z,7.80
2019-02-21T04:59:12.869Z,7.80
2019-02-21T05:01:40.294Z,7.80
2019-02-21T05:04:05.393Z,7.80
2019-02-21T05:06:30.645Z,7.80
2019-02-21T05:08:56.116Z,7.80
2019-02-21T05:11:21.420Z,7.70
2019-02-21T05:13:46.708Z,7.70
2019-02-21T05:16:11.933Z,7.70
2019-02-21T05:18:37.213Z,7.70
2019-02-21T05:21:02.379Z,7.60
2019-02-21T05:23:27.545Z,7.60
2019-02-21T05:25:52.955Z,7.60
2019-02-21T05:28:20.114Z,7.60
2019-02-21T05:30:46.535Z,7.60
2019-02-21T05:33:16.552Z,7.50
2019-02-21T05:35:46.462Z,7.60
2019-02-21T05:38:13.605Z,7.50
2019-02-21T05:40:43.880Z,7.50
2019-02-21T05:43:11.048Z,7.50
2019-02-21T05:45:38.125Z,7.50
2019-02-21T05:48:05.461Z,7.60
2019-02-21T05:50:35.073Z,7.60
2019-02-21T05:53:14.687Z,7.60
2019-02-21T05:55:44.628Z,7.60
2019-02-21T05:58:14.363Z,7.60
2019-02-21T06:00:52.140Z,7.70
2019-02-21T06:03:37.852Z,7.70
2019-02-21T06:06:17.227Z,7.70
2019-02-21T06:08:44.214Z,7.60
2019-02-21T06:11:14.030Z,7.60
2019-02-21T06:13:44.805Z,7.70
2019-02-21T06:16:17.894Z,7.70
2019-02-21T06:18:50.915Z,7.70
2019-02-21T06:21:18.009Z,7.70
2019-02-21T06:23:45.178Z,7.70
2019-02-21T06:26:18.596Z,7.70
2019-02-21T06:28:46.851Z,7.70
2019-02-21T06:31:12.130Z,7.70
2019-02-21T06:33:37.530Z,7.60
2019-02-21T06:36:02.695Z,7.60
2019-02-21T06:38:27.889Z,7.60
2019-02-21T06:45:44.460Z,7.60
2019-02-21T06:48:09.786Z,7.40
2019-02-21T06:50:35.048Z,7.40
2019-02-21T06:53:00.257Z,7.50
2019-02-21T06:55:25.682Z,7.50
2019-02-21T06:57:50.943Z,7.50
2019-02-21T07:00:16.239Z,7.60
2019-02-21T07:02:42.089Z,7.60
2019-02-21T07:05:07.540Z,7.70
2019-02-21T07:07:32.718Z,7.60
2019-02-21T07:09:58.056Z,7.60
2019-02-21T07:12:23.207Z,7.60
2019-02-21T07:14:48.430Z,7.70
2019-02-21T07:19:39.231Z,7.70
2019-02-21T07:36:40.478Z,7.70
2019-02-21T07:39:16.910Z,8.70
2019-02-21T07:41:32.855Z,8.90
2019-02-21T07:43:58.075Z,9.00
2019-02-21T07:46:23.248Z,8.80
2019-02-21T07:48:49.799Z,8.80
2019-02-21T07:51:15.282Z,8.80
2019-02-21T07:53:40.551Z,8.90
2019-02-21T07:56:05.827Z,8.90
2019-02-21T07:58:31.015Z,9.00
2019-02-21T08:00:56.175Z,9.00
2019-02-21T08:03:29.833Z,8.90
2019-02-21T08:05:48.670Z,9.00
2019-02-21T08:08:13.843Z,9.00
2019-02-21T08:10:39.124Z,8.90
2019-02-21T08:13:04.402Z,8.90
2019-02-21T08:15:29.677Z,8.90
2019-02-21T08:17:54.835Z,8.80
2019-02-21T08:20:20.052Z,8.70
2019-02-21T08:22:45.220Z,8.60
2019-02-21T08:25:10.387Z,8.50
2019-02-21T08:27:35.686Z,8.40
2019-02-21T08:30:00.837Z,8.40
2019-02-21T08:32:27.909Z,8.40
2019-02-21T08:34:53.211Z,8.50
2019-02-21T08:37:18.375Z,8.40
2019-02-21T08:39:43.715Z,8.40
2019-02-21T08:42:08.934Z,8.40
2019-02-21T08:44:34.145Z,8.40
2019-02-21T08:47:00.432Z,8.40
2019-02-21T08:49:25.648Z,8.60
2019-02-21T08:51:50.820Z,8.70
2019-02-21T08:54:16.104Z,8.80
2019-02-21T08:56:41.273Z,8.80
2019-02-21T08:59:06.456Z,8.80
2019-02-21T09:01:31.633Z,8.70
2019-02-21T09:03:56.889Z,8.70
2019-02-21T09:06:24.684Z,8.80
2019-02-21T09:08:49.359Z,8.80
2019-02-21T09:11:14.550Z,8.80
2019-02-21T09:13:41.617Z,8.80
2019-02-21T09:16:06.895Z,8.80
2019-02-21T09:18:32.176Z,8.80
2019-02-21T09:20:57.416Z,8.80
2019-02-21T09:23:22.578Z,9.20
2019-02-21T09:25:49.559Z,9.60
2019-02-21T09:28:15.818Z,10.20
2019-02-21T09:30:41.143Z,10.60
2019-02-21T09:33:16.660Z,10.80
2019-02-21T09:35:33.396Z,10.80
2019-02-21T09:37:58.580Z,10.70
2019-02-21T09:40:24.171Z,10.60
2019-02-21T09:42:49.315Z,10.50
2019-02-21T09:45:17.386Z,10.70
2019-02-21T09:47:44.319Z,11.00
2019-02-21T09:50:09.806Z,11.20
2019-02-21T09:52:35.013Z,11.10
2019-02-21T09:55:00.328Z,10.90
2019-02-21T09:57:25.835Z,10.60
2019-02-21T10:04:42.146Z,10.90
2019-02-21T10:07:07.327Z,10.80
2019-02-21T10:09:32.760Z,10.80
2019-02-21T10:11:59.078Z,10.90
2019-02-21T10:14:25.595Z,10.90
2019-02-21T10:16:50.789Z,11.00
2019-02-21T10:19:16.111Z,11.00
2019-02-21T10:28:58.493Z,11.30
2019-02-21T10:31:23.779Z,11.20
2019-02-21T10:33:48.960Z,11.10
2019-02-21T10:36:14.312Z,11.10
2019-02-21T10:38:39.485Z,10.80
2019-02-21T10:41:05.064Z,11.00
2019-02-21T10:43:30.259Z,10.90
2019-02-21T10:45:55.457Z,10.90
2019-02-21T10:48:20.663Z,10.60
2019-02-21T10:50:45.864Z,10.60
2019-02-21T10:53:12.015Z,10.80
2019-02-21T10:55:38.058Z,10.70
2019-02-21T10:58:03.228Z,10.70
2019-02-21T11:00:29.163Z,10.70
2019-02-21T11:02:54.616Z,10.60
2019-02-21T11:05:20.012Z,10.60
2019-02-21T11:07:45.188Z,10.60
2019-02-21T11:10:12.189Z,10.60
2019-02-21T11:12:37.403Z,10.50
2019-02-21T11:15:06.207Z,10.40
2019-02-21T11:17:32.485Z,10.50
2019-02-21T11:19:57.723Z,10.60
2019-02-21T11:22:22.974Z,10.60
2019-02-21T11:24:48.187Z,10.60
2019-02-21T11:27:13.356Z,10.60
2019-02-21T11:29:38.539Z,10.70
2019-02-21T11:32:03.735Z,10.80
2019-02-21T11:34:28.985Z,10.80
2019-02-21T11:36:54.172Z,10.90
2019-02-21T11:39:19.444Z,10.90
2019-02-21T11:41:44.614Z,10.80
2019-02-21T11:44:09.793Z,10.90
2019-02-21T11:46:35.137Z,10.90
2019-02-21T11:49:00.443Z,10.80
2019-02-21T11:51:25.699Z,10.80
2019-02-21T11:53:50.954Z,10.90
2019-02-21T11:56:16.246Z,11.00
2019-02-21T11:58:41.537Z,11.00
2019-02-21T12:01:08.363Z,11.00
2019-02-21T12:03:33.850Z,11.00
2019-02-21T12:05:59.030Z,11.00
2019-02-21T12:08:24.318Z,10.80
2019-02-21T12:10:50.998Z,10.70
2019-02-21T12:13:16.402Z,10.60
2019-02-21T12:15:41.584Z,10.60
2019-02-21T12:18:06.808Z,10.50
2019-02-21T12:20:31.958Z,10.50
2019-02-21T12:22:57.247Z,10.50
2019-02-21T12:25:23.443Z,10.50
2019-02-21T12:27:48.623Z,10.40
2019-02-21T12:30:15.703Z,10.30
2019-02-21T12:32:40.871Z,10.30
2019-02-21T12:35:07.307Z,10.40
2019-02-21T12:37:32.560Z,10.50
2019-02-21T12:39:57.771Z,10.60
2019-02-21T12:42:23.230Z,10.60
2019-02-21T12:44:48.409Z,10.50
2019-02-21T12:47:13.638Z,10.50
2019-02-21T12:49:38.907Z,10.40
2019-02-21T12:52:04.116Z,10.40
2019-02-21T12:54:31.537Z,10.50
2019-02-21T12:56:56.881Z,10.50
2019-02-21T12:59:22.071Z,10.40
2019-02-21T13:01:47.359Z,10.50
2019-02-21T13:04:12.534Z,10.60
2019-02-21T13:06:38.004Z,10.80
2019-02-21T13:09:04.453Z,10.70
2019-02-21T13:11:31.567Z,10.80
2019-02-21T13:13:56.998Z,10.80
2019-02-21T13:16:22.523Z,10.80
2019-02-21T13:18:47.783Z,10.70
2019-02-21T13:21:12.983Z,10.40
2019-02-21T13:40:39.263Z,10.30
2019-02-21T13:43:04.497Z,10.10
2019-02-21T13:45:29.765Z,10.10
2019-02-21T13:52:48.080Z,10.10
2019-02-21T13:55:16.927Z,10.10
2019-02-21T13:57:42.491Z,10.10
2019-02-21T14:00:15.331Z,10.20
2019-02-21T14:02:40.569Z,10.30
2019-02-21T14:05:06.327Z,10.30
2019-02-21T14:07:31.532Z,10.40
2019-02-21T14:09:56.847Z,10.30
2019-02-21T14:12:22.091Z,10.20
2019-02-21T14:31:51.921Z,10.00
2019-02-21T14:34:17.116Z,9.50
2019-02-21T14:36:42.746Z,9.40
2019-02-21T14:39:10.528Z,9.40
2019-02-21T14:41:35.899Z,9.30
2019-02-21T14:44:01.277Z,9.30
2019-02-21T14:46:26.737Z,9.30
2019-02-21T14:48:51.896Z,9.20
2019-02-21T14:51:20.538Z,9.30
2019-02-21T14:53:47.925Z,9.20
2019-02-21T14:56:13.396Z,9.20
2019-02-21T14:58:38.645Z,9.30
2019-02-21T15:01:04.373Z,9.30
2019-02-21T15:03:29.753Z,9.30
2019-02-21T15:05:54.932Z,9.30
2019-02-21T15:08:22.093Z,9.30
2019-02-21T15:10:47.316Z,9.20
2019-02-21T15:13:12.615Z,9.20
2019-02-21T15:15:37.959Z,9.20
2019-02-21T15:18:07.489Z,9.20
2019-02-21T15:20:36.786Z,9.20
2019-02-21T15:22:57.435Z,9.20
2019-02-21T15:25:22.635Z,9.20
2019-02-21T15:27:51.222Z,9.20
2019-02-21T15:30:24.784Z,9.20
2019-02-21T15:32:49.961Z,9.20
2019-02-21T15:35:15.141Z,9.20
2019-02-21T15:37:40.339Z,9.20
2019-02-21T15:40:08.955Z,9.10
2019-02-21T15:42:34.223Z,9.10
2019-02-21T15:44:59.528Z,9.10
2019-02-21T15:47:24.693Z,9.00
2019-02-21T15:49:49.879Z,9.00
2019-02-21T15:52:22.318Z,9.00
2019-02-21T15:54:42.424Z,9.00
2019-02-21T15:57:07.585Z,9.00
2019-02-21T15:59:32.871Z,8.90
2019-02-21T16:01:58.041Z,8.90
2019-02-21T16:04:23.191Z,8.90
2019-02-21T16:06:51.727Z,8.90
2019-02-21T16:09:16.635Z,8.90
2019-02-21T16:11:42.089Z,8.90
2019-02-21T16:14:07.360Z,8.90
2019-02-21T16:16:32.626Z,8.80
2019-02-21T16:23:49.884Z,8.80
2019-02-21T16:26:15.043Z,8.70
2019-02-21T16:28:40.211Z,8.80
2019-02-21T16:31:05.426Z,8.70
2019-02-21T16:33:30.618Z,8.70
2019-02-21T16:35:55.783Z,8.70
2019-02-21T17:24:32.200Z,8.70
2019-02-21T18:03:24.315Z,8.70
2019-02-21T18:05:49.740Z,8.60
2019-02-21T18:08:14.966Z,8.60
2019-02-21T18:10:40.246Z,8.50
2019-02-21T18:13:05.588Z,8.50
2019-02-21T18:15:32.936Z,8.50
2019-02-21T18:17:58.214Z,8.50
2019-02-21T18:20:23.455Z,8.50
2019-02-21T18:22:48.740Z,8.40
2019-02-21T18:25:23.648Z,8.50
2019-02-21T18:27:48.818Z,8.40
2019-02-21T18:30:15.860Z,8.40
2019-02-21T18:32:42.135Z,8.40
2019-02-21T18:35:11.487Z,8.30
2019-02-21T18:37:46.651Z,8.40
2019-02-21T18:40:16.907Z,8.40
2019-02-21T18:42:34.971Z,8.40
2019-02-21T18:45:00.162Z,8.30
2019-02-21T18:47:25.376Z,8.30
2019-02-21T18:49:50.556Z,8.30
2019-02-21T18:52:15.839Z,8.30
2019-02-21T18:54:41.034Z,8.30
2019-02-21T18:57:06.258Z,8.30
2019-02-21T18:59:32.101Z,8.30
2019-02-21T19:01:58.600Z,8.20
2019-02-21T19:04:23.942Z,8.20
2019-02-21T19:06:49.407Z,8.20
2019-02-21T19:09:14.837Z,8.20
2019-02-21T19:11:40.015Z,8.20
2019-02-21T19:14:05.471Z,8.10
2019-02-21T19:16:30.926Z,8.10
2019-02-21T19:18:56.305Z,8.20
2019-02-21T19:21:21.752Z,8.10
2019-02-21T19:23:47.027Z,8.10
2019-02-21T19:26:12.392Z,8.10
2019-02-21T19:28:37.948Z,8.10
2019-02-21T19:31:07.255Z,8.10
2019-02-21T19:33:32.909Z,8.10
2019-02-21T19:35:58.233Z,8.10
2019-02-21T19:38:25.093Z,8.10
2019-02-21T19:40:51.376Z,8.10
2019-02-21T19:43:17.191Z,8.10
2019-02-21T19:45:42.541Z,8.10
2019-02-21T19:48:11.607Z,8.10
2019-02-21T19:50:37.412Z,8.00
2019-02-21T19:53:02.693Z,8.00
2019-02-21T19:55:28.097Z,8.10
2019-02-21T19:58:01.794Z,8.00
2019-02-21T20:00:28.999Z,8.00
2019-02-21T20:02:54.363Z,8.00
2019-02-21T20:05:19.752Z,8.00
2019-02-21T20:07:45.263Z,8.00
2019-02-21T20:10:10.712Z,8.00
2019-02-21T20:12:36.516Z,8.00
2019-02-21T20:15:03.547Z,7.90
2019-02-21T20:17:28.952Z,7.90
2019-02-21T20:19:54.256Z,7.90
2019-02-21T20:22:19.491Z,7.90
2019-02-21T20:24:46.238Z,7.90
2019-02-21T20:27:11.656Z,7.90
2019-02-21T20:29:36.959Z,8.00
2019-02-21T20:32:03.261Z,7.90
2019-02-21T20:34:29.756Z,7.90
2019-02-21T20:36:54.970Z,7.90
2019-02-21T20:39:21.566Z,7.90
2019-02-21T20:41:46.965Z,7.90
2019-02-21T20:44:12.675Z,7.90
2019-02-21T20:46:41.591Z,7.90
2019-02-21T20:49:06.791Z,8.00
2019-02-21T20:51:31.963Z,7.90
2019-02-21T20:53:57.247Z,7.90
2019-02-21T20:56:22.491Z,8.00
2019-02-21T20:58:47.924Z,7.90
2019-02-21T21:01:16.686Z,7.90
2019-02-21T21:03:41.843Z,7.90
2019-02-21T21:06:07.351Z,7.90
2019-02-21T21:08:42.499Z,7.90
2019-02-21T21:10:59.778Z,7.90
2019-02-21T21:13:28.098Z,7.90
2019-02-21T21:18:19.142Z,7.90
2019-02-21T21:20:44.663Z,7.80
2019-02-21T21:23:09.960Z,7.80
2019-02-21T21:25:35.230Z,7.70
2019-02-21T21:28:00.411Z,7.70
2019-02-21T21:30:25.742Z,7.70
2019-02-21T21:32:50.919Z,7.70
2019-02-21T21:35:16.107Z,7.70
2019-02-21T21:37:41.407Z,7.70
2019-02-21T21:40:10.094Z,7.70
2019-02-21T21:42:38.450Z,7.70
2019-02-21T21:45:07.576Z,7.70
2019-02-21T21:47:32.754Z,7.70
2019-02-21T21:49:57.935Z,7.70
2019-02-21T21:52:23.272Z,7.60
2019-02-21T21:54:48.448Z,7.70
2019-02-21T21:57:13.658Z,7.70
2019-02-21T21:59:38.845Z,7.70
2019-02-21T22:02:04.152Z,7.70
2019-02-21T22:04:29.901Z,7.70
2019-02-21T22:06:55.795Z,7.60
2019-02-21T22:09:21.171Z,7.70
2019-02-21T22:11:46.338Z,7.70
2019-02-21T22:14:11.574Z,7.70
2019-02-21T22:16:36.845Z,7.70
2019-02-21T22:19:02.330Z,7.70
2019-02-21T22:21:27.510Z,7.70
2019-02-21T22:23:52.708Z,7.70
2019-02-21T22:26:18.002Z,7.70
2019-02-21T22:28:43.320Z,7.60
2019-02-21T22:31:08.764Z,7.60
2019-02-21T22:33:36.248Z,7.60
2019-02-21T22:36:01.810Z,7.60
2019-02-21T22:38:27.268Z,7.60
2019-02-21T22:40:52.777Z,7.60
2019-02-21T22:43:18.107Z,7.60
2019-02-21T22:45:43.459Z,7.60
2019-02-21T22:48:08.830Z,7.60
2019-02-21T22:50:34.273Z,7.50
2019-02-21T22:53:00.789Z,7.50
2019-02-21T22:55:27.696Z,7.50
2019-02-21T22:57:53.144Z,7.50
2019-02-21T23:00:35.769Z,7.40
2019-02-21T23:03:06.089Z,7.50
2019-02-21T23:05:56.725Z,7.50
2019-02-21T23:08:28.710Z,7.40
2019-02-21T23:10:54.101Z,7.40
2019-02-21T23:13:19.512Z,7.40
2019-02-21T23:15:45.077Z,7.40
2019-02-21T23:18:10.672Z,7.40
2019-02-21T23:20:36.026Z,7.40
2019-02-21T23:23:01.548Z,7.40
2019-02-21T23:25:27.160Z,7.40
2019-02-21T23:27:52.433Z,7.30
2019-02-21T23:30:17.594Z,7.40
2019-02-21T23:32:43.076Z,7.30
2019-02-21T23:35:09.697Z,7.40
2019-02-21T23:40:01.443Z,7.30
2019-02-21T23:42:27.114Z,7.40
2019-02-21T23:44:52.879Z,7.40
2019-02-21T23:47:18.375Z,7.40
2019-02-21T23:49:43.793Z,7.40
2019-02-21T23:52:09.067Z,7.40
2019-02-21T23:54:34.377Z,7.40
2019-02-21T23:56:59.564Z,7.30
2019-02-21T23:59:24.853Z,7.30
